Time;durP1;ratioP1;P1;durP2;ratioP2;P2;SDS_P1;SDS_P2;PMS_P1;PMS_P2;Temp;Humidity;BMP_temperature;BMP_pressure;BME280_temperature;BME280_humidity;BME280_pressure;Samples;Min_cycle;Max_cycle;Signal;HPM_P1;HPM_P2
2022/07/08 00:03:01;;;;;;;1999.90;999.90;;;;;;;16.02;100.00;99977.22;5045309;28;20123;-53
2022/07/08 00:05:46;;;;;;;1999.90;999.90;;;;;;;16.03;100.00;99978.97;5044855;28;20044;-51
2022/07/08 00:08:31;;;;;;;1999.90;999.90;;;;;;;16.07;100.00;99985.81;5044202;28;20048;-52
2022/07/08 00:11:15;;;;;;;1999.90;999.90;;;;;;;16.04;100.00;99992.09;5045444;28;20053;-52
2022/07/08 00:13:59;;;;;;;1999.90;999.90;;;;;;;16.03;100.00;99987.72;5042533;28;20183;-52
2022/07/08 00:16:44;;;;;;;1999.90;999.90;;;;;;;16.00;100.00;99990.50;5045702;28;20052;-52
2022/07/08 00:19:29;;;;;;;1999.90;999.90;;;;;;;16.05;100.00;99995.56;5044616;28;20049;-52
2022/07/08 00:22:13;;;;;;;1999.90;999.90;;;;;;;16.00;100.00;99998.44;5043648;28;20045;-51
2022/07/08 00:24:57;;;;;;;1999.90;999.90;;;;;;;15.98;100.00;99986.22;5045300;28;20052;-51
2022/07/08 00:27:42;;;;;;;1999.90;999.90;;;;;;;15.94;100.00;99997.84;5045415;28;20044;-52
2022/07/08 00:30:26;;;;;;;1999.90;999.90;;;;;;;16.02;100.00;99995.72;5044171;28;20103;-52
2022/07/08 00:33:10;;;;;;;1999.90;999.90;;;;;;;16.00;100.00;100001.06;5043376;28;20478;-52
2022/07/08 00:35:55;;;;;;;1999.90;999.90;;;;;;;15.85;100.00;100002.59;5047277;28;20514;-52
2022/07/08 00:38:39;;;;;;;1999.90;999.90;;;;;;;15.90;100.00;100002.41;5045254;28;20049;-51
2022/07/08 00:41:23;;;;;;;1999.90;999.90;;;;;;;15.86;100.00;100006.97;5040573;28;20194;-52
2022/07/08 00:44:08;;;;;;;1999.90;999.90;;;;;;;15.79;100.00;100002.84;5038687;28;20056;-51
2022/07/08 00:46:52;;;;;;;1999.90;999.90;;;;;;;15.72;100.00;100005.84;5041295;28;20063;-51
2022/07/08 00:49:37;;;;;;;1999.90;999.90;;;;;;;15.76;100.00;100002.13;5039894;28;20064;-52
2022/07/08 00:52:22;;;;;;;1999.90;999.90;;;;;;;15.65;100.00;100007.84;5039490;28;20961;-52
2022/07/08 00:55:07;;;;;;;1999.90;999.90;;;;;;;15.38;100.00;100007.25;5042989;28;20049;-52
2022/07/08 00:57:51;;;;;;;1999.90;999.90;;;;;;;15.50;100.00;100012.03;5044227;28;20059;-53
2022/07/08 01:00:36;;;;;;;1999.90;999.90;;;;;;;15.51;100.00;100007.59;5041919;28;20511;-51
2022/07/08 01:03:20;;;;;;;1999.90;999.90;;;;;;;15.33;100.00;100003.94;5042134;28;20080;-51
2022/07/08 01:06:05;;;;;;;1999.90;999.90;;;;;;;15.21;100.00;100013.22;5047229;28;20057;-51
2022/07/08 01:08:50;;;;;;;1999.90;999.90;;;;;;;15.18;100.00;100011.56;5044476;28;20052;-52
2022/07/08 01:11:35;;;;;;;1999.90;999.90;;;;;;;15.29;100.00;100010.25;5045042;28;20512;-52
2022/07/08 01:14:19;;;;;;;1999.90;999.90;;;;;;;15.30;100.00;100011.97;5049971;28;20052;-52
2022/07/08 01:17:04;;;;;;;1999.90;999.90;;;;;;;15.34;100.00;100011.81;5043512;28;20055;-52
2022/07/08 01:19:49;;;;;;;1999.90;999.90;;;;;;;15.45;100.00;100008.69;5042470;28;20640;-52
2022/07/08 01:22:34;;;;;;;1999.90;999.90;;;;;;;15.49;100.00;100014.72;5044095;28;20384;-52
2022/07/08 01:25:18;;;;;;;1999.90;999.90;;;;;;;15.49;100.00;100001.50;5044127;28;20170;-52
2022/07/08 01:28:03;;;;;;;1999.90;999.90;;;;;;;15.47;100.00;100012.16;5045286;28;20099;-52
2022/07/08 01:30:48;;;;;;;1999.90;999.90;;;;;;;15.45;100.00;100011.34;5043586;28;20072;-52
2022/07/08 01:33:32;;;;;;;1999.90;999.90;;;;;;;15.49;100.00;100012.06;5045480;28;20118;-52
2022/07/08 01:36:17;;;;;;;1999.90;999.90;;;;;;;15.52;100.00;100004.03;5045221;28;20052;-51
2022/07/08 01:39:02;;;;;;;1999.90;999.90;;;;;;;15.54;100.00;100010.97;5043249;28;20053;-52
2022/07/08 01:41:46;;;;;;;1999.90;999.90;;;;;;;15.40;100.00;100013.31;5042577;28;20094;-52
2022/07/08 01:44:32;;;;;;;1999.90;999.90;;;;;;;15.43;100.00;100021.94;5044589;28;20054;-51
2022/07/08 01:47:16;;;;;;;1999.90;999.90;;;;;;;15.49;100.00;100018.19;5042336;28;20076;-51
2022/07/08 01:50:01;;;;;;;1999.90;999.90;;;;;;;15.44;100.00;100022.84;5041724;28;20048;-51
2022/07/08 01:52:46;;;;;;;1999.90;999.90;;;;;;;15.36;100.00;100035.47;5043259;28;20051;-51
2022/07/08 01:55:31;;;;;;;1999.90;999.90;;;;;;;15.21;100.00;100039.63;5041592;28;20052;-52
2022/07/08 01:58:16;;;;;;;1999.90;999.90;;;;;;;15.35;100.00;100031.97;5042883;28;20385;-52
2022/07/08 02:01:00;;;;;;;1999.90;999.90;;;;;;;15.46;100.00;100030.66;5042558;28;20060;-52
2022/07/08 02:03:45;;;;;;;1999.90;999.90;;;;;;;15.31;100.00;100034.81;5041657;28;20044;-52
2022/07/08 02:06:30;;;;;;;1999.90;999.90;;;;;;;15.43;100.00;100037.78;5042981;28;20079;-52
2022/07/08 02:09:14;;;;;;;1999.90;999.90;;;;;;;15.25;100.00;100035.91;5041004;28;20049;-53
2022/07/08 02:15:05;;;;;;;1999.90;999.90;;;;;;;15.39;100.00;100043.25;5043922;28;20033;-52
2022/07/08 02:17:50;;;;;;;1999.90;999.90;;;;;;;15.33;100.00;100038.22;5040970;28;21004;-52
2022/07/08 02:20:34;;;;;;;1999.90;999.90;;;;;;;15.36;100.00;100046.03;5040876;28;20048;-53
2022/07/08 02:23:19;;;;;;;1999.90;999.90;;;;;;;15.38;100.00;100042.41;5044884;28;20155;-52
2022/07/08 02:26:03;;;;;;;1999.90;999.90;;;;;;;15.40;100.00;100053.78;5046901;28;20060;-53
2022/07/08 02:28:47;;;;;;;1999.90;999.90;;;;;;;15.31;100.00;100046.22;5045920;28;20541;-52
2022/07/08 02:31:31;;;;;;;1999.90;999.90;;;;;;;15.29;100.00;100049.84;5048112;28;20047;-53
2022/07/08 02:34:16;;;;;;;1999.90;999.90;;;;;;;15.20;100.00;100062.47;5046295;28;20041;-52
2022/07/08 02:37:01;;;;;;;1999.90;999.90;;;;;;;15.14;100.00;100060.09;5048172;28;20872;-51
2022/07/08 02:39:45;;;;;;;1999.90;999.90;;;;;;;15.15;100.00;100064.44;5046057;28;20426;-52
2022/07/08 02:42:30;;;;;;;1999.90;999.90;;;;;;;15.15;100.00;100055.69;5046650;28;20077;-52
2022/07/08 02:45:15;;;;;;;1999.90;999.90;;;;;;;15.22;100.00;100065.06;5045452;28;20055;-53
2022/07/08 02:47:59;;;;;;;1999.90;999.90;;;;;;;15.23;100.00;100068.56;5047871;28;20048;-53
2022/07/08 02:50:43;;;;;;;1999.90;999.90;;;;;;;15.27;100.00;100073.63;5045737;28;20836;-53
2022/07/08 02:53:28;;;;;;;1999.90;999.90;;;;;;;15.23;100.00;100079.09;5046788;28;20053;-52
2022/07/08 02:56:12;;;;;;;1999.90;999.90;;;;;;;15.25;100.00;100083.41;5045755;28;20051;-51
2022/07/08 02:58:58;;;;;;;1999.90;999.90;;;;;;;15.33;100.00;100075.19;5043649;28;20041;-52
2022/07/08 03:01:42;;;;;;;1999.90;999.90;;;;;;;15.36;100.00;100077.69;5046725;28;20045;-52
2022/07/08 03:04:27;;;;;;;1999.90;999.90;;;;;;;15.27;100.00;100075.41;5041652;28;20049;-53
2022/07/08 03:07:11;;;;;;;1999.90;999.90;;;;;;;15.36;100.00;100078.56;5042202;28;20064;-51
2022/07/08 03:09:55;;;;;;;1999.90;999.90;;;;;;;15.34;100.00;100084.81;5042853;28;20098;-51
2022/07/08 03:12:40;;;;;;;1999.90;999.90;;;;;;;15.27;100.00;100086.84;5043052;28;20055;-52
2022/07/08 03:15:27;;;;;;;1999.90;999.90;;;;;;;15.35;100.00;100081.25;5041966;28;20041;-52
2022/07/08 03:18:11;;;;;;;1999.90;999.90;;;;;;;15.34;100.00;100085.69;5040835;28;20068;-53
2022/07/08 03:20:55;;;;;;;1999.90;999.90;;;;;;;15.38;100.00;100081.13;5042013;28;20095;-52
2022/07/08 03:23:40;;;;;;;1999.90;999.90;;;;;;;15.28;100.00;100082.44;5041483;28;20054;-52
2022/07/08 03:26:24;;;;;;;1999.90;999.90;;;;;;;15.32;100.00;100092.78;5040150;28;20076;-51
2022/07/08 03:29:09;;;;;;;1999.90;999.90;;;;;;;15.42;100.00;100091.50;5041668;28;20041;-52
2022/07/08 03:31:53;;;;;;;1999.90;999.90;;;;;;;15.36;100.00;100097.03;5042100;28;20046;-52
2022/07/08 03:34:38;;;;;;;1999.90;999.90;;;;;;;15.42;100.00;100094.13;5040136;28;20049;-52
2022/07/08 03:37:22;;;;;;;1999.90;999.90;;;;;;;15.37;100.00;100100.50;5041811;28;20500;-51
2022/07/08 03:43:10;;;;;;;1999.90;999.90;;;;;;;15.37;100.00;100104.03;5041289;28;20143;-52
2022/07/08 03:45:55;;;;;;;1999.90;999.90;;;;;;;15.23;100.00;100109.00;5042583;28;20045;-51
2022/07/08 03:48:40;;;;;;;1999.90;999.90;;;;;;;15.49;100.00;100115.88;5040629;28;20106;-52
2022/07/08 03:51:24;;;;;;;1999.90;999.90;;;;;;;15.33;100.00;100110.34;5039169;28;20060;-52
2022/07/08 03:54:09;;;;;;;1999.90;999.90;;;;;;;15.59;100.00;100117.19;5042407;28;20060;-52
2022/07/08 03:56:54;;;;;;;1999.90;999.90;;;;;;;15.58;100.00;100125.19;5040185;28;20776;-52
2022/07/08 03:59:38;;;;;;;1999.90;999.90;;;;;;;15.60;100.00;100104.88;5040803;28;20487;-53
2022/07/08 04:02:23;;;;;;;1999.90;999.90;;;;;;;15.55;100.00;100120.91;5040594;28;20045;-53
2022/07/08 04:05:07;;;;;;;1999.90;999.90;;;;;;;15.57;100.00;100119.06;5038790;28;20063;-52
2022/07/08 04:07:52;;;;;;;1999.90;999.90;;;;;;;15.63;100.00;100123.22;5041171;28;20487;-52
2022/07/08 04:10:36;;;;;;;1999.90;999.90;;;;;;;15.78;100.00;100124.41;5041156;28;20049;-51
2022/07/08 04:13:23;;;;;;;1999.90;999.90;;;;;;;15.93;100.00;100123.78;5042356;28;20048;-53
2022/07/08 04:16:13;;;;;;;1999.90;999.90;;;;;;;15.77;100.00;100130.63;5040295;28;20056;-53
2022/07/08 04:18:57;;;;;;;1999.90;999.90;;;;;;;15.71;100.00;100136.16;5040024;28;20037;-52
2022/07/08 04:21:41;;;;;;;1999.90;999.90;;;;;;;15.89;100.00;100132.72;5040104;28;20048;-52
2022/07/08 04:24:25;;;;;;;1999.90;999.90;;;;;;;15.97;100.00;100135.06;5040453;28;20053;-52
2022/07/08 04:27:10;;;;;;;1999.90;999.90;;;;;;;15.99;100.00;100142.03;5046598;28;20048;-52
2022/07/08 04:29:55;;;;;;;1999.90;999.90;;;;;;;15.97;100.00;100150.94;5044962;28;20092;-52
2022/07/08 04:32:39;;;;;;;1999.90;999.90;;;;;;;15.99;100.00;100147.31;5046505;28;20061;-52
2022/07/08 04:35:24;;;;;;;1999.90;999.90;;;;;;;16.08;100.00;100156.59;5040667;28;20519;-53
2022/07/08 04:38:08;;;;;;;1999.90;999.90;;;;;;;16.11;100.00;100164.41;5042126;28;20048;-51
2022/07/08 04:40:53;;;;;;;1999.90;999.90;;;;;;;16.21;100.00;100152.50;5039089;28;20056;-51
2022/07/08 04:43:38;;;;;;;1999.90;999.90;;;;;;;16.15;100.00;100158.06;5040780;28;20132;-53
2022/07/08 04:46:22;;;;;;;1999.90;999.90;;;;;;;16.40;100.00;100157.00;5045306;28;20069;-53
2022/07/08 04:49:06;;;;;;;1999.90;999.90;;;;;;;16.48;100.00;100163.69;5042587;28;20092;-52
2022/07/08 04:51:51;;;;;;;1999.90;999.90;;;;;;;16.54;100.00;100158.16;5044302;28;20326;-53
2022/07/08 04:54:38;;;;;;;1999.90;999.90;;;;;;;16.57;100.00;100154.47;5047015;28;20055;-52
2022/07/08 04:57:23;;;;;;;1999.90;999.90;;;;;;;16.69;100.00;100161.88;5043776;28;20049;-52
2022/07/08 05:00:08;;;;;;;1999.90;999.90;;;;;;;16.63;100.00;100148.91;5048245;28;20041;-52
2022/07/08 05:02:53;;;;;;;1999.90;999.90;;;;;;;16.58;100.00;100153.56;5048380;28;20048;-52
2022/07/08 05:05:37;;;;;;;1999.90;999.90;;;;;;;16.65;100.00;100162.94;5046511;28;20087;-53
2022/07/08 05:08:21;;;;;;;1999.90;999.90;;;;;;;16.65;100.00;100172.66;5048587;28;20048;-53
2022/07/08 05:11:06;;;;;;;1999.90;999.90;;;;;;;16.45;100.00;100182.34;5051486;28;20044;-53
2022/07/08 05:13:50;;;;;;;1999.90;999.90;;;;;;;16.47;100.00;100183.09;5046472;28;20057;-52
2022/07/08 05:16:34;;;;;;;1999.90;999.90;;;;;;;16.48;100.00;100189.28;5047217;28;20143;-54
2022/07/08 05:19:19;;;;;;;1999.90;999.90;;;;;;;16.45;100.00;100184.13;5049883;28;20071;-53
2022/07/08 05:22:03;;;;;;;1999.90;999.90;;;;;;;16.59;100.00;100192.31;5049507;28;20037;-53
2022/07/08 05:24:48;;;;;;;1999.90;999.90;;;;;;;16.78;100.00;100195.03;5049319;28;20048;-54
2022/07/08 05:27:32;;;;;;;1999.90;999.90;;;;;;;16.65;100.00;100199.97;5046896;28;20045;-54
2022/07/08 05:30:17;;;;;;;1999.90;999.90;;;;;;;16.56;100.00;100198.56;5049099;28;20044;-53
2022/07/08 05:33:01;;;;;;;1999.90;999.90;;;;;;;16.58;100.00;100201.16;5042105;28;20489;-53
2022/07/08 05:35:46;;;;;;;1999.90;999.90;;;;;;;16.53;100.00;100204.00;5043995;28;20052;-53
2022/07/08 05:38:31;;;;;;;1999.90;999.90;;;;;;;16.57;100.00;100212.66;5042686;28;20106;-53
2022/07/08 05:41:15;;;;;;;1999.90;999.90;;;;;;;16.92;100.00;100205.00;5046847;28;20048;-53
2022/07/08 05:44:00;;;;;;;1999.90;999.90;;;;;;;16.69;100.00;100198.03;5044059;28;20053;-53
2022/07/08 05:46:45;;;;;;;1999.90;999.90;;;;;;;17.13;100.00;100211.97;5043330;28;20479;-54
2022/07/08 05:49:29;;;;;;;1999.90;999.90;;;;;;;17.11;100.00;100211.16;5045810;28;20055;-53
2022/07/08 05:52:14;;;;;;;1999.90;999.90;;;;;;;17.20;100.00;100218.69;5048104;28;20080;-54
2022/07/08 05:54:58;;;;;;;1999.90;999.90;;;;;;;17.05;100.00;100209.66;5044537;28;20049;-54
2022/07/08 05:57:43;;;;;;;1999.90;999.90;;;;;;;17.18;100.00;100219.69;5044236;28;20602;-52
2022/07/08 06:00:27;;;;;;;1999.90;999.90;;;;;;;16.87;100.00;100226.38;5045778;28;20598;-53
2022/07/08 06:03:11;;;;;;;1999.90;999.90;;;;;;;16.66;100.00;100236.06;5041537;28;20083;-54
2022/07/08 06:05:55;;;;;;;1999.90;999.90;;;;;;;16.63;100.00;100233.53;5043203;28;20049;-53
2022/07/08 06:08:40;;;;;;;1999.90;999.90;;;;;;;16.81;100.00;100243.38;5039685;28;20644;-53
2022/07/08 06:11:24;;;;;;;1999.90;999.90;;;;;;;16.63;100.00;100230.91;5039355;28;20475;-54
2022/07/08 06:14:09;;;;;;;1999.90;999.90;;;;;;;17.14;100.00;100231.34;5042777;28;20056;-53
2022/07/08 06:16:53;;;;;;;1999.90;999.90;;;;;;;16.92;100.00;100242.03;5041750;28;20067;-53
2022/07/08 06:19:38;;;;;;;1999.90;999.90;;;;;;;17.13;100.00;100246.38;5044331;28;20049;-53
2022/07/08 06:22:22;;;;;;;1999.90;999.90;;;;;;;17.20;100.00;100245.16;5042072;28;20073;-53
2022/07/08 06:25:07;;;;;;;1999.90;999.90;;;;;;;17.34;100.00;100239.22;5044492;28;20844;-52
2022/07/08 06:27:51;;;;;;;1999.90;999.90;;;;;;;17.63;100.00;100243.16;5043381;28;20090;-53
2022/07/08 06:30:36;;;;;;;1999.90;999.90;;;;;;;18.08;100.00;100239.25;5042060;28;20100;-53
2022/07/08 06:33:20;;;;;;;1999.90;999.90;;;;;;;18.44;100.00;100249.81;5043816;28;20079;-53
2022/07/08 06:36:05;;;;;;;1999.90;999.90;;;;;;;18.77;100.00;100240.25;5043938;28;20052;-54
2022/07/08 06:38:50;;;;;;;1999.90;999.90;;;;;;;19.08;100.00;100248.31;5045049;28;20526;-53
2022/07/08 06:41:35;;;;;;;1999.90;999.90;;;;;;;18.93;100.00;100246.47;5043083;28;20045;-54
2022/07/08 06:44:19;;;;;;;1999.90;999.90;;;;;;;19.37;100.00;100240.56;5043937;28;21415;-54
2022/07/08 06:47:04;;;;;;;1999.90;999.90;;;;;;;19.50;100.00;100238.97;5043839;28;20056;-54
2022/07/08 06:49:49;;;;;;;1999.90;999.90;;;;;;;19.56;100.00;100238.63;5041589;28;20098;-55
2022/07/08 06:52:33;;;;;;;1999.90;999.90;;;;;;;19.62;100.00;100235.59;5042559;28;20384;-54
2022/07/08 06:55:18;;;;;;;1999.90;999.90;;;;;;;19.53;100.00;100228.16;5040566;28;20049;-55
2022/07/08 06:58:02;;;;;;;1999.90;999.90;;;;;;;19.51;100.00;100226.53;5043576;28;20099;-54
2022/07/08 07:00:46;;;;;;;1999.90;999.90;;;;;;;19.62;100.00;100238.25;5043954;28;20087;-54
2022/07/08 07:03:31;;;;;;;1999.90;999.90;;;;;;;19.22;100.00;100241.41;5048272;28;20060;-55
2022/07/08 07:06:15;;;;;;;1999.90;999.90;;;;;;;19.25;100.00;100236.78;5047642;28;20091;-55
2022/07/08 07:09:00;;;;;;;1999.90;999.90;;;;;;;19.58;100.00;100236.72;5047421;28;20049;-54
2022/07/08 07:11:44;;;;;;;1999.90;999.90;;;;;;;19.36;100.00;100242.34;5045949;28;20159;-53
2022/07/08 07:14:29;;;;;;;1999.90;999.90;;;;;;;19.33;100.00;100247.81;5047116;28;20064;-53
2022/07/08 07:17:17;;;;;;;1999.90;999.90;;;;;;;19.44;100.00;100249.91;5049353;28;20060;-54
2022/07/08 07:20:02;;;;;;;1999.90;999.90;;;;;;;19.46;100.00;100244.50;5049789;28;20053;-53
2022/07/08 07:22:47;;;;;;;1999.90;999.90;;;;;;;19.77;100.00;100246.38;5047015;28;20094;-54
2022/07/08 07:25:31;;;;;;;1999.90;999.90;;;;;;;19.80;100.00;100243.53;5047099;28;20045;-55
2022/07/08 07:28:22;;;;;;;1999.90;999.90;;;;;;;20.12;100.00;100256.81;5047477;28;20358;-54
2022/07/08 07:31:07;;;;;;;1999.90;999.90;;;;;;;19.95;100.00;100250.63;5032426;28;20492;-54
2022/07/08 07:33:51;;;;;;;1999.90;999.90;;;;;;;19.69;100.00;100252.09;5046106;28;20095;-55
2022/07/08 07:36:36;;;;;;;1999.90;999.90;;;;;;;19.90;100.00;100260.66;5047122;28;20500;-54
2022/07/08 07:39:20;;;;;;;1999.90;999.90;;;;;;;19.61;100.00;100263.13;5046613;28;20041;-55
2022/07/08 07:42:04;;;;;;;1999.90;999.90;;;;;;;19.77;100.00;100262.31;5044861;28;20064;-55
2022/07/08 07:44:49;;;;;;;1999.90;999.90;;;;;;;20.23;100.00;100270.31;5043394;28;20527;-55
2022/07/08 07:47:34;;;;;;;1999.90;999.90;;;;;;;20.11;100.00;100279.00;5042541;28;20052;-54
2022/07/08 07:50:18;;;;;;;1999.90;999.90;;;;;;;20.41;100.00;100269.25;5043556;28;20092;-54
2022/07/08 07:53:03;;;;;;;1999.90;999.90;;;;;;;19.84;100.00;100272.50;5043948;28;20040;-56
2022/07/08 07:55:47;;;;;;;1999.90;999.90;;;;;;;19.44;100.00;100276.47;5040275;28;20055;-54
2022/07/08 07:58:32;;;;;;;1999.90;999.90;;;;;;;19.78;100.00;100278.16;5043378;28;20071;-54
2022/07/08 08:01:17;;;;;;;1999.90;999.90;;;;;;;19.74;100.00;100275.75;5048047;28;20051;-54
2022/07/08 08:04:01;;;;;;;1999.90;999.90;;;;;;;19.29;100.00;100274.66;5045020;28;20480;-55
2022/07/08 08:06:46;;;;;;;1999.90;999.90;;;;;;;19.35;100.00;100263.69;5046850;28;20044;-54
2022/07/08 08:09:30;;;;;;;1999.90;999.90;;;;;;;19.74;100.00;100276.63;5044382;28;20110;-54
2022/07/08 08:12:15;;;;;;;1999.90;999.90;;;;;;;19.65;100.00;100276.28;5045876;28;20045;-54
2022/07/08 08:14:59;;;;;;;1999.90;999.90;;;;;;;20.23;100.00;100283.63;5046816;28;20049;-53
2022/07/08 08:17:43;;;;;;;1999.90;999.90;;;;;;;20.15;100.00;100276.09;5041615;28;20094;-54
2022/07/08 08:20:29;;;;;;;1999.90;999.90;;;;;;;20.81;100.00;100276.72;5044535;28;20072;-55
2022/07/08 08:23:13;;;;;;;1999.90;999.90;;;;;;;21.17;100.00;100268.28;5044419;28;20048;-55
2022/07/08 08:25:58;;;;;;;1999.90;999.90;;;;;;;22.77;100.00;100262.31;5043350;28;20041;-55
2022/07/08 08:28:42;;;;;;;1999.90;999.90;;;;;;;21.73;100.00;100265.69;5043530;28;20052;-57
2022/07/08 08:31:27;;;;;;;1999.90;999.90;;;;;;;20.98;100.00;100261.41;5041837;28;20640;-55
2022/07/08 08:34:11;;;;;;;1999.90;999.90;;;;;;;21.00;100.00;100272.84;5042614;28;20060;-54
2022/07/08 08:36:55;;;;;;;1999.90;999.90;;;;;;;22.16;100.00;100266.44;5042721;28;20068;-56
2022/07/08 08:39:40;;;;;;;1999.90;999.90;;;;;;;21.40;100.00;100275.72;5043961;28;20539;-56
2022/07/08 08:42:26;;;;;;;1999.90;999.90;;;;;;;21.41;100.00;100280.09;5041449;28;20049;-55
2022/07/08 08:45:11;;;;;;;1999.90;999.90;;;;;;;21.14;100.00;100287.13;5041481;28;20044;-55
2022/07/08 08:48:00;;;;;;;1999.90;999.90;;;;;;;20.89;100.00;100272.63;5043080;28;20053;-54
2022/07/08 08:50:53;;;;;;;1999.90;999.90;;;;;;;20.22;100.00;100276.59;5042003;28;20060;-54
2022/07/08 08:53:42;;;;;;;1999.90;999.90;;;;;;;20.30;100.00;100285.81;5039198;28;20095;-55
2022/07/08 08:56:27;;;;;;;1999.90;999.90;;;;;;;20.07;100.00;100280.97;5041299;28;20041;-55
2022/07/08 08:59:15;;;;;;;1999.90;999.90;;;;;;;20.73;100.00;100287.81;5039616;28;20107;-55
2022/07/08 09:02:00;;;;;;;1999.90;999.90;;;;;;;20.76;100.00;100287.63;5040554;28;20057;-55
2022/07/08 09:04:46;;;;;;;1999.90;999.90;;;;;;;20.71;100.00;100287.06;5038574;28;20126;-54
2022/07/08 09:07:30;;;;;;;1999.90;999.90;;;;;;;20.95;100.00;100285.56;5039710;28;20049;-56
2022/07/08 09:10:16;;;;;;;1999.90;999.90;;;;;;;21.47;100.00;100274.38;5042581;28;20053;-55
2022/07/08 09:13:02;;;;;;;1999.90;999.90;;;;;;;21.59;100.00;100277.25;5043121;28;20056;-55
2022/07/08 09:15:50;;;;;;;1999.90;999.90;;;;;;;22.08;100.00;100277.59;5044538;28;20044;-55
2022/07/08 09:18:36;;;;;;;1999.90;999.90;;;;;;;22.82;100.00;100280.72;5042617;28;20051;-56
2022/07/08 09:21:27;;;;;;;1999.90;999.90;;;;;;;22.17;100.00;100286.84;5043850;28;20056;-55
2022/07/08 09:24:19;;;;;;;1999.90;999.90;;;;;;;21.12;100.00;100286.34;5042189;28;20055;-56
2022/07/08 09:27:09;;;;;;;1999.90;999.90;;;;;;;20.72;100.00;100291.41;5043781;28;20040;-56
2022/07/08 09:30:01;;;;;;;1999.90;999.90;;;;;;;20.18;100.00;100294.53;5043141;28;20041;-55
2022/07/08 09:32:59;;;;;;;1999.90;999.90;;;;;;;19.91;100.00;100301.41;5045169;28;20045;-55
2022/07/08 09:35:44;;;;;;;1999.90;999.90;;;;;;;20.14;100.00;100300.09;5047089;28;20522;-55
2022/07/08 09:38:30;;;;;;;1999.90;999.90;;;;;;;20.19;100.00;100296.25;5047526;28;20053;-55
2022/07/08 09:41:20;;;;;;;1999.90;999.90;;;;;;;20.24;100.00;100295.97;5045264;28;20049;-55
2022/07/08 09:44:04;;;;;;;1999.90;999.90;;;;;;;20.27;100.00;100290.47;5047082;28;20052;-54
2022/07/08 09:46:49;;;;;;;1999.90;999.90;;;;;;;20.75;100.00;100292.09;5046269;28;20060;-54
2022/07/08 09:49:34;;;;;;;1999.90;999.90;;;;;;;21.17;100.00;100293.09;5046756;28;20056;-56
2022/07/08 09:52:20;;;;;;;1999.90;999.90;;;;;;;21.73;100.00;100285.19;5044936;28;20052;-54
2022/07/08 09:55:05;;;;;;;1999.90;999.90;;;;;;;20.87;100.00;100287.00;5042986;28;20388;-55
2022/07/08 09:57:49;;;;;;;1999.90;999.90;;;;;;;20.50;100.00;100287.31;5045788;28;20050;-54
2022/07/08 10:00:34;;;;;;;1999.90;999.90;;;;;;;20.23;100.00;100295.09;5044869;28;20106;-55
2022/07/08 10:03:20;;;;;;;1999.90;999.90;;;;;;;20.18;100.00;100293.66;5045979;28;20044;-54
2022/07/08 10:06:05;;;;;;;1999.90;999.90;;;;;;;20.16;100.00;100295.56;5045557;28;20052;-55
2022/07/08 10:08:51;;;;;;;1999.90;999.90;;;;;;;19.99;100.00;100300.03;5045749;28;20231;-55
2022/07/08 10:11:38;;;;;;;1999.90;999.90;;;;;;;20.05;100.00;100304.13;5045767;28;20419;-55
2022/07/08 10:14:22;;;;;;;1999.90;999.90;;;;;;;20.26;100.00;100310.03;5047111;28;20060;-54
2022/07/08 10:17:10;;;;;;;1999.90;999.90;;;;;;;19.99;100.00;100305.34;5045070;28;20959;-55
2022/07/08 10:19:55;;;;;;;1999.90;999.90;;;;;;;20.65;100.00;100309.56;5043961;28;20121;-55
2022/07/08 10:22:43;;;;;;;1999.90;999.90;;;;;;;20.75;100.00;100297.41;5049261;28;20052;-55
2022/07/08 10:25:29;;;;;;;1999.90;999.90;;;;;;;20.42;100.00;100302.03;5047308;28;20040;-54
2022/07/08 10:28:14;;;;;;;1999.90;999.90;;;;;;;20.69;100.00;100305.75;5045314;28;20048;-54
2022/07/08 10:30:58;;;;;;;1999.90;999.90;;;;;;;20.64;100.00;100309.66;5045565;28;20049;-55
2022/07/08 10:33:47;;;;;;;1999.90;999.90;;;;;;;20.73;100.00;100314.41;5045876;28;20088;-56
2022/07/08 10:36:45;;;;;;;1999.90;999.90;;;;;;;20.77;100.00;100303.50;5043604;28;20071;-56
2022/07/08 10:39:37;;;;;;;1999.90;999.90;;;;;;;20.59;100.00;100299.28;5046658;28;20497;-55
2022/07/08 10:42:21;;;;;;;1999.90;999.90;;;;;;;20.86;100.00;100302.09;5045978;28;20392;-54
2022/07/08 10:45:16;;;;;;;1999.90;999.90;;;;;;;20.65;100.00;100314.88;5046658;28;20037;-55
2022/07/08 10:48:07;;;;;;;1999.90;999.90;;;;;;;20.38;100.00;100300.50;5046880;28;20661;-55
2022/07/08 10:50:51;;;;;;;1999.90;999.90;;;;;;;21.15;100.00;100302.97;5047272;28;20052;-55
2022/07/08 10:53:47;;;;;;;1999.90;999.90;;;;;;;22.60;100.00;100297.31;5046992;28;20044;-55
2022/07/08 10:56:49;;;;;;;1999.90;999.90;;;;;;;22.86;100.00;100296.41;5044621;28;20044;-55
2022/07/08 10:59:37;;;;;;;;;;;;;;;23.56;100.00;100295.13;5045925;28;20383;-54
2022/07/08 11:02:22;;;;;;;1999.90;999.90;;;;;;;23.80;100.00;100289.88;5046637;28;19931;-56
2022/07/08 11:05:07;;;;;;;1999.90;999.90;;;;;;;23.19;100.00;100287.06;5047371;28;20094;-55
2022/07/08 11:08:20;;;;;;;1999.90;999.90;;;;;;;23.60;100.00;100293.97;5044050;28;20100;-55
2022/07/08 11:11:05;;;;;;;1999.90;999.90;;;;;;;22.76;100.00;100297.16;5046775;28;20901;-57
2022/07/08 11:13:51;;;;;;;1999.90;999.90;;;;;;;22.06;100.00;100289.31;5048214;28;20048;-56
2022/07/08 11:16:35;;;;;;;1999.90;999.90;;;;;;;21.87;100.00;100308.31;5046956;28;20076;-57
2022/07/08 11:19:21;;;;;;;1999.90;999.90;;;;;;;21.64;100.00;100302.66;5046210;28;20074;-55
2022/07/08 11:22:07;;;;;;;1999.90;999.90;;;;;;;21.35;100.00;100306.25;5045793;28;20443;-54
2022/07/08 11:24:53;;;;;;;1999.90;999.90;;;;;;;21.55;100.00;100291.72;5045842;28;20144;-55
2022/07/08 11:27:39;;;;;;;1999.90;999.90;;;;;;;20.97;100.00;100306.78;5046126;28;20047;-54
2022/07/08 11:30:29;;;;;;;1999.90;999.90;;;;;;;20.47;100.00;100314.13;5043875;28;20041;-53
2022/07/08 11:33:13;;;;;;;1999.90;999.90;;;;;;;20.64;100.00;100307.00;5045663;28;20053;-55
2022/07/08 11:35:58;;;;;;;1999.90;999.90;;;;;;;20.62;100.00;100309.72;5048673;28;20114;-54
2022/07/08 11:38:43;;;;;;;1999.90;999.90;;;;;;;20.71;100.00;100309.19;5044693;28;20045;-55
2022/07/08 11:41:27;;;;;;;1999.90;999.90;;;;;;;20.64;100.00;100305.19;5044532;28;20052;-55
2022/07/08 11:44:12;;;;;;;1999.90;999.90;;;;;;;20.84;100.00;100305.81;5044300;28;20055;-55
2022/07/08 11:46:57;;;;;;;1999.90;999.90;;;;;;;21.17;100.00;100303.75;5047544;28;20102;-54
2022/07/08 11:49:42;;;;;;;1999.90;999.90;;;;;;;21.34;100.00;100297.38;5044481;28;20384;-55
2022/07/08 11:52:28;;;;;;;1999.90;999.90;;;;;;;21.70;100.00;100293.41;5046505;28;20044;-54
2022/07/08 11:55:12;;;;;;;1999.90;999.90;;;;;;;21.79;100.00;100289.28;5045719;28;20115;-55
2022/07/08 11:58:00;;;;;;;1999.90;999.90;;;;;;;22.22;100.00;100298.06;5044230;28;20052;-55
2022/07/08 12:00:46;;;;;;;1999.90;999.90;;;;;;;22.96;100.00;100288.66;5044444;28;20084;-55
2022/07/08 12:03:34;;;;;;;1999.90;999.90;;;;;;;22.21;100.00;100282.16;5043948;28;20057;-54
2022/07/08 12:06:26;;;;;;;1999.90;999.90;;;;;;;22.61;99.78;100285.69;5042509;28;20059;-54